createdAt,value
2017-08-15T00:01:13.918Z,95368.22
2017-08-15T00:03:41.435Z,95367.67
2017-08-15T00:06:08.976Z,95365.19
2017-08-15T00:08:36.535Z,95359.11
2017-08-15T00:11:04.092Z,95349.13
2017-08-15T00:13:31.638Z,95357.82
2017-08-15T00:15:59.183Z,95358.06
2017-08-15T00:18:26.682Z,95359.34
2017-08-15T00:20:54.349Z,95357.83
2017-08-15T00:23:21.859Z,95346.47
2017-08-15T00:25:49.352Z,95354.03
2017-08-15T00:28:16.894Z,95352.36
2017-08-15T00:30:44.425Z,95349.89
2017-08-15T00:33:11.934Z,95347.79
2017-08-15T00:35:39.483Z,95344.97
2017-08-15T00:38:07.062Z,95334.39
2017-08-15T00:40:34.584Z,95343.63
2017-08-15T00:43:02.081Z,95342.70
2017-08-15T00:45:29.717Z,95340.50
2017-08-15T00:47:57.235Z,95338.77
2017-08-15T00:50:24.861Z,95343.09
2017-08-15T00:52:52.403Z,95345.96
2017-08-15T00:55:19.960Z,95348.06
2017-08-15T00:57:47.496Z,95348.06
2017-08-15T01:00:15.021Z,95347.30
2017-08-15T01:02:42.573Z,95345.25
2017-08-15T01:05:10.081Z,95348.23
2017-08-15T01:07:37.593Z,95351.13
2017-08-15T01:10:05.204Z,95344.17
2017-08-15T01:12:32.698Z,95344.94
2017-08-15T01:15:00.230Z,95340.98
2017-08-15T01:17:27.797Z,95341.00
2017-08-15T01:19:55.337Z,95351.55
2017-08-15T01:22:22.882Z,95350.52
2017-08-15T01:24:50.434Z,95356.04
2017-08-15T01:27:17.929Z,95352.85
2017-08-15T01:29:45.477Z,95352.52
2017-08-15T01:32:12.983Z,95362.91
2017-08-15T01:34:40.514Z,95365.02
2017-08-15T01:37:08.229Z,95374.47
2017-08-15T01:39:35.740Z,95368.78
2017-08-15T01:42:03.286Z,95373.53
2017-08-15T01:44:30.839Z,95368.05
2017-08-15T01:46:58.369Z,95373.54
2017-08-15T01:49:25.872Z,95365.03
2017-08-15T01:51:53.421Z,95371.72
2017-08-15T01:54:20.952Z,95373.78
2017-08-15T01:56:48.455Z,95367.75
2017-08-15T01:59:16.004Z,95371.71
2017-08-15T02:01:43.529Z,95368.89
2017-08-15T02:04:11.116Z,95362.62
2017-08-15T02:06:38.617Z,95360.73
2017-08-15T02:09:06.130Z,95355.05
2017-08-15T02:11:33.685Z,95356.39
2017-08-15T02:14:01.258Z,95359.42
2017-08-15T02:16:28.793Z,95347.88
2017-08-15T02:18:56.285Z,95352.64
2017-08-15T02:21:23.817Z,95350.75
2017-08-15T02:23:51.346Z,95354.91
2017-08-15T02:26:18.880Z,95347.88
2017-08-15T02:28:46.437Z,95345.06
2017-08-15T02:31:13.934Z,95353.41
2017-08-15T02:33:41.472Z,95349.42
2017-08-15T02:36:09.012Z,95345.60
2017-08-15T02:38:36.584Z,95348.83
2017-08-15T02:41:04.077Z,95349.25
2017-08-15T02:43:31.638Z,95348.48
2017-08-15T02:45:59.158Z,95356.84
2017-08-15T02:48:26.658Z,95358.34
2017-08-15T02:50:54.325Z,95362.09
2017-08-15T02:53:21.835Z,95357.22
2017-08-15T02:55:49.405Z,95356.23
2017-08-15T02:58:16.921Z,95357.21
2017-08-15T03:00:44.431Z,95361.93
2017-08-15T03:03:11.986Z,95356.33
2017-08-15T03:05:39.492Z,95368.19
2017-08-15T03:08:06.993Z,95361.80
2017-08-15T03:10:34.528Z,95362.20
2017-08-15T03:13:02.027Z,95354.03
2017-08-15T03:15:29.630Z,95355.91
2017-08-15T03:17:57.141Z,95364.64
2017-08-15T03:20:24.641Z,95365.80
2017-08-15T03:22:52.189Z,95371.22
2017-08-15T03:25:19.698Z,95372.77
2017-08-15T03:27:47.265Z,95378.84
2017-08-15T03:30:14.771Z,95379.39
2017-08-15T03:32:42.282Z,95382.43
2017-08-15T03:35:09.818Z,95383.55
2017-08-15T03:37:37.357Z,95387.14
2017-08-15T03:40:04.921Z,95388.85
2017-08-15T03:42:32.418Z,95390.78
2017-08-15T03:44:59.933Z,95391.52
2017-08-15T03:47:27.478Z,95380.94
2017-08-15T03:49:54.981Z,95389.07
2017-08-15T03:52:22.543Z,95397.59
2017-08-15T03:54:50.213Z,95397.20
2017-08-15T03:57:17.714Z,95395.66
2017-08-15T03:59:45.267Z,95399.08
2017-08-15T04:02:12.783Z,95393.94
2017-08-15T04:04:40.283Z,95393.92
2017-08-15T04:07:07.870Z,95393.52
2017-08-15T04:09:35.457Z,95395.41
2017-08-15T04:12:02.980Z,95391.03
2017-08-15T04:14:30.489Z,95394.02
2017-08-15T04:16:58.039Z,95393.08
2017-08-15T04:19:25.574Z,95394.56
2017-08-15T04:21:53.133Z,95403.25
2017-08-15T04:24:20.640Z,95399.43
2017-08-15T04:26:48.218Z,95403.02
2017-08-15T04:29:15.782Z,95403.56
2017-08-15T04:31:43.413Z,95410.19
2017-08-15T04:34:11.861Z,95414.72
2017-08-15T04:36:39.381Z,95410.95
2017-08-15T04:39:06.956Z,95406.03
2017-08-15T04:41:34.484Z,95413.17
2017-08-15T04:44:02.037Z,95411.06
2017-08-15T04:46:29.643Z,95414.27
2017-08-15T04:48:57.210Z,95409.12
2017-08-15T04:51:24.896Z,95415.37
2017-08-15T04:53:52.445Z,95406.05
2017-08-15T04:56:20.033Z,95410.77
2017-08-15T04:58:47.639Z,95402.22
2017-08-15T05:01:15.145Z,95397.84
2017-08-15T05:03:42.654Z,95400.88
2017-08-15T05:06:10.208Z,95394.97
2017-08-15T05:08:37.757Z,95394.98
2017-08-15T05:11:05.319Z,95406.30
2017-08-15T05:13:32.880Z,95410.27
2017-08-15T05:16:00.466Z,95411.77
2017-08-15T05:18:28.020Z,95409.48
2017-08-15T05:20:55.808Z,95407.02
2017-08-15T05:23:23.548Z,95406.79
2017-08-15T05:25:51.083Z,95408.50
2017-08-15T05:28:18.623Z,95388.80
2017-08-15T05:30:46.204Z,95395.13
2017-08-15T05:33:13.726Z,95394.52
2017-08-15T05:35:41.253Z,95397.37
2017-08-15T05:38:08.897Z,95393.94
2017-08-15T05:40:38.107Z,95389.23
2017-08-15T05:43:06.967Z,95389.34
2017-08-15T05:45:35.298Z,95396.89
2017-08-15T05:48:02.834Z,95396.28
2017-08-15T05:50:30.422Z,95379.93
2017-08-15T05:52:59.071Z,95387.12
2017-08-15T05:55:26.807Z,95383.52
2017-08-15T05:57:54.369Z,95381.22
2017-08-15T06:00:22.609Z,95372.47
2017-08-15T06:02:50.254Z,95381.11
2017-08-15T06:05:17.785Z,95384.87
2017-08-15T06:07:46.010Z,95376.19
2017-08-15T06:10:13.800Z,95390.13
2017-08-15T06:12:41.337Z,95394.64
2017-08-15T06:15:09.061Z,95380.63
2017-08-15T06:17:36.677Z,95376.63
2017-08-15T06:30:11.883Z,95377.79
2017-08-15T06:32:39.459Z,95389.69
2017-08-15T06:35:07.044Z,95386.22
2017-08-15T06:37:35.799Z,95384.14
2017-08-15T06:50:30.311Z,95375.05
2017-08-15T06:53:00.072Z,95374.50
2017-08-15T06:58:12.930Z,95371.90
2017-08-15T07:00:40.516Z,95368.08
2017-08-15T07:03:08.501Z,95377.46
2017-08-15T07:05:36.301Z,95383.45
2017-08-15T07:08:04.037Z,95374.77
2017-08-15T07:10:39.306Z,95373.70
2017-08-15T07:13:07.267Z,95379.58
2017-08-15T07:15:35.029Z,95384.17
2017-08-15T07:31:30.347Z,95382.13
2017-08-15T07:33:59.955Z,95377.30
2017-08-15T07:36:30.046Z,95380.66
2017-08-15T07:39:01.824Z,95375.30
2017-08-15T07:41:38.111Z,95376.20
2017-08-15T07:44:39.802Z,95368.95
2017-08-15T07:49:48.719Z,95374.09
2017-08-15T07:52:21.667Z,95369.70
2017-08-15T07:54:59.464Z,95362.27
2017-08-15T07:57:29.417Z,95377.62
2017-08-15T08:00:36.622Z,95359.90
2017-08-15T08:03:42.849Z,95358.78
2017-08-15T08:13:28.257Z,95363.28
2017-08-15T08:16:52.284Z,95359.05
2017-08-15T08:19:58.560Z,95351.41
2017-08-15T08:32:38.496Z,95352.84
2017-08-15T08:35:08.374Z,95342.42
2017-08-15T08:37:38.100Z,95347.48
2017-08-15T08:40:06.360Z,95335.66
2017-08-15T08:42:35.693Z,95345.84
2017-08-15T08:45:06.839Z,95334.45
2017-08-15T08:47:39.689Z,95337.19
2017-08-15T08:50:07.683Z,95344.27
2017-08-15T08:52:43.324Z,95338.59
2017-08-15T09:15:13.298Z,95316.98
2017-08-15T09:17:41.438Z,95306.41
2017-08-15T09:20:09.350Z,95322.32
2017-08-15T09:22:36.895Z,95309.91
2017-08-15T09:25:04.540Z,95298.84
2017-08-15T09:27:33.605Z,95302.34
2017-08-15T09:35:50.670Z,95302.62
2017-08-15T09:38:18.385Z,95295.31
2017-08-15T09:40:46.096Z,95286.58
2017-08-15T09:43:14.017Z,95290.50
2017-08-15T09:45:41.868Z,95279.52
2017-08-15T09:48:09.502Z,95286.10
2017-08-15T09:50:38.648Z,95300.81
2017-08-15T09:53:06.400Z,95285.63
2017-08-15T09:55:34.138Z,95293.17
2017-08-15T09:58:08.154Z,95289.58
2017-08-15T10:00:38.095Z,95288.50
2017-08-15T10:03:05.733Z,95287.78
2017-08-15T10:05:33.505Z,95286.29
2017-08-15T10:08:01.977Z,95289.42
2017-08-15T10:10:29.746Z,95278.30
2017-08-15T10:12:58.025Z,95278.30
2017-08-15T10:15:26.334Z,95270.03
2017-08-15T10:17:54.272Z,95272.39
2017-08-15T10:20:29.225Z,95269.84
2017-08-15T10:22:57.197Z,95274.44
2017-08-15T10:25:25.128Z,95261.47
2017-08-15T10:27:52.830Z,95258.58
2017-08-15T10:30:20.765Z,95273.05
2017-08-15T10:32:48.326Z,95264.52
2017-08-15T10:35:15.933Z,95265.20
2017-08-15T10:37:46.628Z,95268.10
2017-08-15T10:40:22.498Z,95263.23
2017-08-15T10:42:50.131Z,95259.30
2017-08-15T10:45:17.995Z,95257.06
2017-08-15T10:47:51.510Z,95256.62
2017-08-15T10:50:19.322Z,95260.00
2017-08-15T10:52:47.044Z,95263.48
2017-08-15T10:55:15.002Z,95259.05
2017-08-15T10:57:43.699Z,95250.08
2017-08-15T11:00:18.638Z,95241.86
2017-08-15T11:02:46.613Z,95242.95
2017-08-15T11:05:16.053Z,95236.66
2017-08-15T11:07:44.162Z,95246.56
2017-08-15T11:10:13.185Z,95247.83
2017-08-15T11:12:41.137Z,95239.30
2017-08-15T11:15:09.509Z,95232.52
2017-08-15T11:17:37.186Z,95237.91
2017-08-15T11:20:05.992Z,95228.54
2017-08-15T11:22:49.292Z,95230.66
2017-08-15T11:25:24.976Z,95223.78
2017-08-15T11:31:48.040Z,95211.42
2017-08-15T11:34:18.632Z,95224.00
2017-08-15T11:42:41.392Z,95191.22
2017-08-15T11:45:08.970Z,95193.91
2017-08-15T11:47:47.462Z,95196.55
2017-08-15T11:50:15.234Z,95199.03
2017-08-15T11:52:42.871Z,95199.77
2017-08-15T11:55:10.471Z,95194.89
2017-08-15T11:57:38.434Z,95188.06
2017-08-15T12:00:17.553Z,95171.05
2017-08-15T12:02:46.432Z,95184.83
2017-08-15T12:21:14.371Z,95175.64
2017-08-15T12:23:44.664Z,95180.50
2017-08-15T12:26:13.549Z,95179.48
2017-08-15T12:28:41.136Z,95185.31
2017-08-15T12:31:09.770Z,95187.77
2017-08-15T12:33:37.591Z,95180.43
2017-08-15T12:36:05.737Z,95192.30
2017-08-15T12:38:34.432Z,95193.20
2017-08-15T12:41:02.708Z,95196.55
2017-08-15T12:43:30.353Z,95183.69
2017-08-15T12:46:00.259Z,95157.31
2017-08-15T12:48:37.677Z,95183.45
2017-08-15T12:51:07.374Z,95182.84
2017-08-15T12:53:35.884Z,95165.06
2017-08-15T12:56:04.297Z,95174.66
2017-08-15T12:58:32.105Z,95167.09
2017-08-15T13:00:59.969Z,95175.35
2017-08-15T13:03:27.801Z,95163.51
2017-08-15T13:05:55.501Z,95168.69
2017-08-15T13:08:23.306Z,95165.89
2017-08-15T13:10:52.121Z,95168.69
2017-08-15T13:13:37.611Z,95178.84
2017-08-15T13:16:13.783Z,95172.30
2017-08-15T13:22:19.972Z,95173.61
2017-08-15T13:24:52.812Z,95176.36
2017-08-15T13:27:21.757Z,95142.33
2017-08-15T13:29:50.031Z,95154.67
2017-08-15T13:32:19.268Z,95170.26
2017-08-15T13:34:47.196Z,95171.52
2017-08-15T13:37:17.982Z,95168.00
2017-08-15T13:40:06.839Z,95161.83
2017-08-15T13:42:36.197Z,95163.18
2017-08-15T13:45:07.078Z,95156.34
2017-08-15T13:47:36.823Z,95162.95
2017-08-15T13:50:12.694Z,95165.21
2017-08-15T13:52:42.668Z,95159.64
2017-08-15T13:55:10.410Z,95154.58
2017-08-15T13:57:56.925Z,95164.92
2017-08-15T14:00:26.740Z,95154.02
2017-08-15T14:02:58.354Z,95158.71
2017-08-15T14:05:26.725Z,95155.44
2017-08-15T14:07:54.293Z,95154.22
2017-08-15T14:10:36.404Z,95141.09
2017-08-15T14:13:08.364Z,95152.31
2017-08-15T14:15:35.961Z,95151.22
2017-08-15T14:18:07.843Z,95155.22
2017-08-15T14:20:39.851Z,95164.61
2017-08-15T14:23:09.009Z,95153.61
2017-08-15T14:25:37.006Z,95153.55
2017-08-15T14:28:07.145Z,95151.80
2017-08-15T14:30:35.478Z,95142.78
2017-08-15T14:33:05.710Z,95148.55
2017-08-15T14:35:33.656Z,95152.83
2017-08-15T14:38:02.089Z,95152.48
2017-08-15T14:40:29.792Z,95152.31
2017-08-15T14:42:57.838Z,95158.02
2017-08-15T14:45:28.077Z,95155.15
2017-08-15T14:48:03.286Z,95146.99
2017-08-15T14:50:41.252Z,95152.79
2017-08-15T14:53:44.590Z,95152.33
2017-08-15T14:56:13.014Z,95152.53
2017-08-15T14:58:51.013Z,95039.44
2017-08-15T15:01:18.919Z,95136.03
2017-08-15T15:03:57.071Z,95142.91
2017-08-15T15:06:25.868Z,95150.92
2017-08-15T15:08:56.981Z,95153.37
2017-08-15T15:11:25.442Z,95137.41
2017-08-15T15:13:54.580Z,95149.62
2017-08-15T15:16:22.300Z,95144.59
2017-08-15T15:18:50.140Z,95156.34
2017-08-15T15:21:18.057Z,95151.91
2017-08-15T15:23:46.377Z,95139.66
2017-08-15T15:26:14.253Z,95144.80
2017-08-15T15:28:42.881Z,95141.41
2017-08-15T15:31:10.476Z,95147.41
2017-08-15T15:33:38.037Z,95150.50
2017-08-15T15:36:06.503Z,95147.29
2017-08-15T15:38:34.101Z,95149.65
2017-08-15T15:41:02.254Z,95157.73
2017-08-15T15:43:29.969Z,95158.85
2017-08-15T15:45:57.525Z,95157.55
2017-08-15T15:48:25.328Z,95140.30
2017-08-15T15:50:53.024Z,95154.39
2017-08-15T15:53:20.578Z,95158.20
2017-08-15T15:55:48.354Z,95163.99
2017-08-15T15:58:15.913Z,95152.66
2017-08-15T16:00:43.517Z,95153.65
2017-08-15T16:03:11.127Z,95156.56
2017-08-15T16:05:38.691Z,95155.64
2017-08-15T16:08:06.241Z,95162.73
2017-08-15T16:10:33.875Z,95147.83
2017-08-15T16:13:01.512Z,95165.62
2017-08-15T16:15:29.264Z,95168.30
2017-08-15T16:17:56.898Z,95156.91
2017-08-15T16:20:25.849Z,95167.95
2017-08-15T16:22:53.455Z,95168.37
2017-08-15T16:25:21.082Z,95165.05
2017-08-15T16:27:48.629Z,95172.41
2017-08-15T16:30:16.284Z,95155.50
2017-08-15T16:32:43.820Z,95169.09
2017-08-15T16:35:11.410Z,95170.23
2017-08-15T16:37:39.241Z,95177.51
2017-08-15T16:40:06.770Z,95174.05
2017-08-15T16:42:34.462Z,95173.31
2017-08-15T16:45:02.059Z,95157.29
2017-08-15T16:47:29.597Z,95172.05
2017-08-15T16:49:57.312Z,95174.53
2017-08-15T16:52:24.934Z,95175.40
2017-08-15T16:54:52.455Z,95162.71
2017-08-15T16:57:20.027Z,95178.48
2017-08-15T16:59:47.525Z,95182.23
2017-08-15T17:02:15.063Z,95186.75
2017-08-15T17:04:42.562Z,95189.04
2017-08-15T17:07:10.121Z,95185.38
2017-08-15T17:09:37.613Z,95186.55
2017-08-15T17:12:05.178Z,95186.89
2017-08-15T17:14:33.389Z,95186.95
2017-08-15T17:17:00.934Z,95197.84
2017-08-15T17:19:28.478Z,95193.77
2017-08-15T17:21:56.163Z,95196.94
2017-08-15T17:24:23.699Z,95194.23
2017-08-15T17:26:51.251Z,95198.05
2017-08-15T17:29:18.750Z,95196.45
2017-08-15T17:31:46.287Z,95192.70
2017-08-15T17:34:13.789Z,95199.20
2017-08-15T17:36:41.325Z,95196.50
2017-08-15T17:39:08.833Z,95199.70
2017-08-15T17:41:36.384Z,95203.06
2017-08-15T17:44:03.930Z,95189.36
2017-08-15T17:46:31.538Z,95207.77
2017-08-15T17:48:59.042Z,95205.41
2017-08-15T17:51:26.579Z,95201.40
2017-08-15T17:53:54.139Z,95203.08
2017-08-15T17:56:21.674Z,95198.53
2017-08-15T17:58:49.221Z,95198.61
2017-08-15T18:01:16.725Z,95207.42
2017-08-15T18:03:44.327Z,95209.11
2017-08-15T18:06:11.831Z,95208.80
2017-08-15T18:08:39.377Z,95207.24
2017-08-15T18:11:06.966Z,95214.42
2017-08-15T18:13:34.485Z,95218.42
2017-08-15T18:16:02.121Z,95221.09
2017-08-15T18:18:29.624Z,95215.44
2017-08-15T18:20:57.179Z,95213.60
2017-08-15T18:23:24.839Z,95222.62
2017-08-15T18:25:52.340Z,95215.29
2017-08-15T18:28:19.970Z,95224.14
2017-08-15T18:30:47.473Z,95226.05
2017-08-15T18:33:15.035Z,95222.84
2017-08-15T18:35:42.585Z,95227.16
2017-08-15T18:38:10.218Z,95222.95
2017-08-15T18:40:38.054Z,95225.52
2017-08-15T18:43:05.557Z,95224.18
2017-08-15T18:45:33.062Z,95229.75
2017-08-15T18:48:00.599Z,95231.66
2017-08-15T18:50:28.163Z,95236.73
2017-08-15T18:52:55.781Z,95240.75
2017-08-15T18:55:23.409Z,95243.00
2017-08-15T18:57:50.919Z,95244.14
2017-08-15T19:00:18.446Z,95242.46
2017-08-15T19:02:45.993Z,95240.17
2017-08-15T19:05:13.549Z,95242.30
2017-08-15T19:07:41.081Z,95241.00
2017-08-15T19:10:08.581Z,95248.86
2017-08-15T19:12:36.174Z,95243.17
2017-08-15T19:15:03.742Z,95246.19
2017-08-15T19:17:31.242Z,95250.77
2017-08-15T19:19:58.812Z,95249.44
2017-08-15T19:22:26.375Z,95246.23
2017-08-15T19:24:53.909Z,95243.94
2017-08-15T19:27:21.411Z,95247.83
2017-08-15T19:29:48.966Z,95242.71
2017-08-15T19:32:16.941Z,95241.22
2017-08-15T19:34:44.457Z,95251.41
2017-08-15T19:37:12.002Z,95240.55
2017-08-15T19:39:39.510Z,95242.67
2017-08-15T19:42:07.066Z,95247.39
2017-08-15T19:44:34.634Z,95249.94
2017-08-15T19:47:02.182Z,95247.91
2017-08-15T19:49:29.757Z,95255.03
2017-08-15T19:51:57.281Z,95251.52
2017-08-15T19:54:24.882Z,95252.34
2017-08-15T19:56:52.403Z,95255.27
2017-08-15T19:59:19.949Z,95258.01
2017-08-15T20:01:47.730Z,95266.44
2017-08-15T20:04:15.254Z,95269.94
2017-08-15T20:06:42.771Z,95263.52
2017-08-15T20:09:10.339Z,95262.81
2017-08-15T20:11:37.840Z,95253.41
2017-08-15T20:14:05.405Z,95265.93
2017-08-15T20:16:32.948Z,95259.00
2017-08-15T20:19:00.459Z,95268.75
2017-08-15T20:21:28.009Z,95261.20
2017-08-15T20:23:55.549Z,95256.20
2017-08-15T20:26:23.104Z,95270.78
2017-08-15T20:28:50.669Z,95263.95
2017-08-15T20:31:18.200Z,95257.55
2017-08-15T20:33:45.770Z,95262.56
2017-08-15T20:36:13.273Z,95258.49
2017-08-15T20:38:40.794Z,95262.88
2017-08-15T20:41:08.367Z,95259.69
2017-08-15T20:43:35.909Z,95264.70
2017-08-15T20:46:03.464Z,95254.48
2017-08-15T20:48:30.982Z,95261.15
2017-08-15T20:50:58.557Z,95254.80
2017-08-15T20:53:26.110Z,95270.35
2017-08-15T20:55:53.783Z,95262.60
2017-08-15T20:58:21.341Z,95264.34
2017-08-15T21:00:48.883Z,95256.59
2017-08-15T21:03:16.476Z,95256.50
2017-08-15T21:05:44.021Z,95260.08
2017-08-15T21:08:11.563Z,95260.30
2017-08-15T21:10:39.122Z,95258.65
2017-08-15T21:13:06.638Z,95254.42
2017-08-15T21:15:34.154Z,95255.44
2017-08-15T21:18:01.693Z,95252.58
2017-08-15T21:20:29.227Z,95245.11
2017-08-15T21:22:56.740Z,95253.05
2017-08-15T21:25:24.287Z,95251.91
2017-08-15T21:27:51.802Z,95252.31
2017-08-15T21:30:19.359Z,95255.64
2017-08-15T21:32:46.862Z,95255.26
2017-08-15T21:35:14.369Z,95255.51
2017-08-15T21:37:41.911Z,95259.89
2017-08-15T21:40:09.470Z,95256.52
2017-08-15T21:42:36.981Z,95261.25
2017-08-15T21:45:04.481Z,95259.94
2017-08-15T21:47:32.053Z,95256.98
2017-08-15T21:49:59.617Z,95262.72
2017-08-15T21:52:27.162Z,95264.98
2017-08-15T21:54:54.711Z,95264.22
2017-08-15T21:57:22.239Z,95266.53
2017-08-15T21:59:49.782Z,95264.35
2017-08-15T22:02:17.303Z,95254.27
2017-08-15T22:04:44.882Z,95264.30
2017-08-15T22:07:12.395Z,95269.08
2017-08-15T22:09:39.932Z,95260.14
2017-08-15T22:12:07.482Z,95265.20
2017-08-15T22:14:35.043Z,95268.76
2017-08-15T22:17:02.566Z,95271.80
2017-08-15T22:19:30.068Z,95269.19
2017-08-15T22:21:57.621Z,95271.83
2017-08-15T22:24:25.121Z,95264.27
2017-08-15T22:26:52.689Z,95265.44
2017-08-15T22:29:20.238Z,95258.38
2017-08-15T22:31:47.761Z,95266.96
2017-08-15T22:34:15.317Z,95256.36
2017-08-15T22:36:42.822Z,95256.81
2017-08-15T22:39:10.333Z,95270.69
2017-08-15T22:41:37.886Z,95264.84
2017-08-15T22:44:05.412Z,95263.88
2017-08-15T22:46:32.953Z,95263.13
2017-08-15T22:49:00.462Z,95262.06
2017-08-15T22:51:28.067Z,95264.16
2017-08-15T22:53:55.596Z,95262.30
2017-08-15T22:56:23.193Z,95267.39
2017-08-15T22:58:50.696Z,95265.67
2017-08-15T23:01:18.205Z,95262.11
2017-08-15T23:03:45.749Z,95263.28
2017-08-15T23:06:13.245Z,95258.36
2017-08-15T23:08:40.762Z,95260.45
2017-08-15T23:11:08.312Z,95246.61
2017-08-15T23:13:35.898Z,95245.84
2017-08-15T23:16:03.396Z,95231.22
2017-08-15T23:18:30.906Z,95239.19
2017-08-15T23:20:58.473Z,95220.43
2017-08-15T23:23:26.026Z,95233.16
2017-08-15T23:25:53.572Z,95236.01
2017-08-15T23:28:21.075Z,95232.47
2017-08-15T23:30:48.622Z,95239.10
2017-08-15T23:33:16.154Z,95237.98
2017-08-15T23:35:43.665Z,95232.81
2017-08-15T23:38:11.201Z,95242.93
2017-08-15T23:40:38.737Z,95235.99
2017-08-15T23:43:06.233Z,95237.08
2017-08-15T23:45:33.822Z,95232.56
2017-08-15T23:48:01.357Z,95244.69
2017-08-15T23:53:09.117Z,95231.05
2017-08-15T23:55:36.669Z,95230.39
2017-08-15T23:58:04.230Z,95228.27
